createdAt,value
2017-02-18T00:01:07.206Z,1013.68
2017-02-18T00:02:17.411Z,1013.7
2017-02-18T00:03:28.079Z,1013.69
2017-02-18T00:04:38.326Z,1013.65
2017-02-18T00:05:48.519Z,1013.65
2017-02-18T00:06:58.704Z,1013.65
2017-02-18T00:08:08.041Z,1013.65
2017-02-18T00:09:17.418Z,1013.61
2017-02-18T00:10:27.151Z,1013.62
2017-02-18T00:11:36.485Z,1013.62
2017-02-18T00:12:46.238Z,1013.6
2017-02-18T00:13:55.553Z,1013.59
2017-02-18T00:15:05.795Z,1013.6
2017-02-18T00:16:15.530Z,1013.56
2017-02-18T00:17:24.850Z,1013.59
2017-02-18T00:18:34.619Z,1013.58
2017-02-18T00:19:43.937Z,1013.54
2017-02-18T00:20:53.362Z,1013.59
2017-02-18T00:22:02.658Z,1013.57
2017-02-18T00:23:12.425Z,1013.58
2017-02-18T00:24:23.045Z,1013.57
2017-02-18T00:25:32.793Z,1013.57
2017-02-18T00:26:43.467Z,1013.56
2017-02-18T00:27:53.657Z,1013.55
2017-02-18T00:29:03.830Z,1013.57
2017-02-18T00:30:14.014Z,1013.59
2017-02-18T00:31:23.758Z,1013.55
2017-02-18T00:32:34.428Z,1013.57
2017-02-18T00:33:45.047Z,1013.56
2017-02-18T00:34:55.251Z,1013.54
2017-02-18T00:36:05.431Z,1013.58
2017-02-18T00:37:15.172Z,1013.58
2017-02-18T00:38:25.851Z,1013.62
2017-02-18T00:39:35.620Z,1013.59
2017-02-18T00:40:45.365Z,1013.62
2017-02-18T00:41:54.676Z,1013.61
2017-02-18T00:43:03.979Z,1013.63
2017-02-18T00:44:14.248Z,1013.62
2017-02-18T00:45:23.557Z,1013.64
2017-02-18T00:46:33.300Z,1013.61
2017-02-18T00:47:43.497Z,1013.66
2017-02-18T00:48:53.280Z,1013.64
2017-02-18T00:50:03.087Z,1013.64
2017-02-18T00:51:12.400Z,1013.64
2017-02-18T00:52:22.132Z,1013.69
2017-02-18T00:53:31.878Z,1013.67
2017-02-18T00:54:42.064Z,1013.63
2017-02-18T00:55:52.289Z,1013.69
2017-02-18T00:57:02.497Z,1013.65
2017-02-18T00:58:12.258Z,1013.65
2017-02-18T00:59:22.468Z,1013.69
2017-02-18T01:00:31.777Z,1013.69
2017-02-18T01:01:42.024Z,1013.69
2017-02-18T01:02:52.644Z,1013.69
2017-02-18T01:04:03.262Z,1013.65
2017-02-18T01:05:13.025Z,1013.69
2017-02-18T01:06:23.198Z,1013.65
2017-02-18T01:07:32.568Z,1013.66
2017-02-18T01:08:42.762Z,1013.63
2017-02-18T01:09:52.940Z,1013.67
2017-02-18T01:11:02.699Z,1013.6
2017-02-18T01:12:13.320Z,1013.63
2017-02-18T01:13:22.684Z,1013.6
2017-02-18T01:14:33.320Z,1013.63
2017-02-18T01:15:43.496Z,1013.54
2017-02-18T01:16:52.807Z,1013.57
2017-02-18T01:18:03.420Z,1013.56
2017-02-18T01:19:14.121Z,1013.56
2017-02-18T01:20:24.313Z,1013.53
2017-02-18T01:21:34.061Z,1013.57
2017-02-18T01:22:43.807Z,1013.57
2017-02-18T01:23:53.980Z,1013.56
2017-02-18T01:25:03.793Z,1013.61
2017-02-18T01:26:13.556Z,1013.61
2017-02-18T01:27:23.733Z,1013.59
2017-02-18T01:28:34.342Z,1013.63
2017-02-18T01:29:44.530Z,1013.64
2017-02-18T01:30:54.332Z,1013.58
2017-02-18T01:32:04.124Z,1013.61
2017-02-18T01:33:14.309Z,1013.64
2017-02-18T01:34:24.487Z,1013.67
2017-02-18T01:35:34.667Z,1013.67
2017-02-18T01:36:44.906Z,1013.69
2017-02-18T01:37:55.520Z,1013.68
2017-02-18T01:39:05.265Z,1013.71
2017-02-18T01:40:15.918Z,1013.7
2017-02-18T01:41:25.659Z,1013.71
2017-02-18T01:42:36.361Z,1013.74
2017-02-18T01:43:46.544Z,1013.71
2017-02-18T01:44:56.327Z,1013.74
2017-02-18T01:46:06.562Z,1013.75
2017-02-18T01:47:16.741Z,1013.73
2017-02-18T01:48:26.545Z,1013.73
2017-02-18T01:49:36.291Z,1013.75
2017-02-18T01:50:46.471Z,1013.74
2017-02-18T01:51:56.660Z,1013.73
2017-02-18T01:53:05.992Z,1013.73
2017-02-18T01:54:15.784Z,1013.7
2017-02-18T01:55:25.100Z,1013.77
2017-02-18T01:56:35.711Z,1013.75
2017-02-18T01:57:45.889Z,1013.75
2017-02-18T01:58:55.627Z,1013.75
2017-02-18T02:00:04.986Z,1013.77
2017-02-18T02:01:14.303Z,1013.71
2017-02-18T02:02:24.055Z,1013.78
2017-02-18T02:03:33.840Z,1013.74
2017-02-18T02:04:43.631Z,1013.77
2017-02-18T02:05:53.438Z,1013.77
2017-02-18T02:07:03.185Z,1013.75
2017-02-18T02:08:12.935Z,1013.79
2017-02-18T02:09:22.243Z,1013.84
2017-02-18T02:10:31.559Z,1013.81
2017-02-18T02:11:40.926Z,1013.78
2017-02-18T02:12:51.115Z,1013.78
2017-02-18T02:14:00.880Z,1013.81
2017-02-18T02:15:11.516Z,1013.83
2017-02-18T02:16:20.835Z,1013.79
2017-02-18T02:17:31.076Z,1013.79
2017-02-18T02:18:40.817Z,1013.78
2017-02-18T02:19:50.987Z,1013.76
2017-02-18T02:21:01.195Z,1013.82
2017-02-18T02:22:10.942Z,1013.79
2017-02-18T02:23:21.192Z,1013.79
2017-02-18T02:24:30.506Z,1013.82
2017-02-18T02:25:41.134Z,1013.76
2017-02-18T02:26:50.441Z,1013.77
2017-02-18T02:28:00.182Z,1013.76
2017-02-18T02:29:10.623Z,1013.79
2017-02-18T02:30:19.965Z,1013.77
2017-02-18T02:31:29.274Z,1013.78
2017-02-18T02:32:39.015Z,1013.76
2017-02-18T02:33:49.623Z,1013.73
2017-02-18T02:34:59.864Z,1013.74
2017-02-18T02:36:09.643Z,1013.74
2017-02-18T02:37:18.958Z,1013.72
2017-02-18T02:38:29.152Z,1013.67
2017-02-18T02:39:39.348Z,1013.66
2017-02-18T02:40:49.187Z,1013.67
2017-02-18T02:41:58.937Z,1013.69
2017-02-18T02:43:08.249Z,1013.68
2017-02-18T02:44:18.467Z,1013.66
2017-02-18T02:45:27.818Z,1013.65
2017-02-18T02:46:37.657Z,1013.67
2017-02-18T02:47:47.393Z,1013.67
2017-02-18T02:48:57.151Z,1013.65
2017-02-18T02:50:06.917Z,1013.64
2017-02-18T02:51:17.553Z,1013.69
2017-02-18T02:52:27.561Z,1013.67
2017-02-18T02:53:37.758Z,1013.7
2017-02-18T02:54:47.065Z,1013.69
2017-02-18T02:55:57.286Z,1013.65
2017-02-18T02:57:07.047Z,1013.65
2017-02-18T02:58:17.469Z,1013.67
2017-02-18T02:59:27.236Z,1013.68
2017-02-18T03:00:36.995Z,1013.68
2017-02-18T03:01:46.747Z,1013.66
2017-02-18T03:02:56.506Z,1013.66
2017-02-18T03:04:06.309Z,1013.67
2017-02-18T03:05:16.090Z,1013.68
2017-02-18T03:06:26.263Z,1013.7
2017-02-18T03:07:35.621Z,1013.71
2017-02-18T03:08:44.938Z,1013.67
2017-02-18T03:09:54.779Z,1013.66
2017-02-18T03:11:04.540Z,1013.62
2017-02-18T03:12:13.865Z,1013.67
2017-02-18T03:13:23.639Z,1013.67
2017-02-18T03:14:33.832Z,1013.71
2017-02-18T03:15:43.634Z,1013.71
2017-02-18T03:16:52.990Z,1013.71
2017-02-18T03:18:02.819Z,1013.67
2017-02-18T03:19:12.129Z,1013.72
2017-02-18T03:20:22.362Z,1013.68
2017-02-18T03:21:32.608Z,1013.71
2017-02-18T03:22:42.359Z,1013.71
2017-02-18T03:23:51.673Z,1013.72
2017-02-18T03:25:01.422Z,1013.73
2017-02-18T03:26:11.182Z,1013.72
2017-02-18T03:27:20.993Z,1013.75
2017-02-18T03:28:31.246Z,1013.73
2017-02-18T03:29:41.071Z,1013.73
2017-02-18T03:30:51.256Z,1013.76
2017-02-18T03:32:01.462Z,1013.73
2017-02-18T03:33:11.712Z,1013.73
2017-02-18T03:34:21.029Z,1013.73
2017-02-18T03:35:30.773Z,1013.73
2017-02-18T03:36:41.478Z,1013.76
2017-02-18T03:37:51.235Z,1013.78
2017-02-18T03:39:02.067Z,1013.77
2017-02-18T03:40:11.430Z,1013.77
2017-02-18T03:41:20.743Z,1013.71
2017-02-18T03:42:30.965Z,1013.76
2017-02-18T03:43:40.707Z,1013.81
2017-02-18T03:44:50.508Z,1013.8
2017-02-18T03:45:59.819Z,1013.76
2017-02-18T03:47:09.133Z,1013.79
2017-02-18T03:48:18.895Z,1013.79
2017-02-18T03:49:29.152Z,1013.78
2017-02-18T03:50:38.996Z,1013.78
2017-02-18T03:51:48.325Z,1013.79
2017-02-18T03:52:58.520Z,1013.83
2017-02-18T03:54:07.852Z,1013.84
2017-02-18T03:55:18.043Z,1013.84
2017-02-18T03:56:28.731Z,1013.85
2017-02-18T03:57:38.944Z,1013.89
2017-02-18T03:58:48.272Z,1013.84
2017-02-18T03:59:58.034Z,1013.86
2017-02-18T04:01:07.344Z,1013.86
2017-02-18T04:02:16.716Z,1013.89
2017-02-18T04:03:26.479Z,1013.87
2017-02-18T04:04:36.236Z,1013.85
2017-02-18T04:05:46.437Z,1013.85
2017-02-18T04:06:56.193Z,1013.89
2017-02-18T04:08:06.430Z,1013.89
2017-02-18T04:09:16.208Z,1013.87
2017-02-18T04:10:25.962Z,1013.87
2017-02-18T04:11:35.282Z,1013.9
2017-02-18T04:12:45.903Z,1013.89
2017-02-18T04:13:56.138Z,1013.91
2017-02-18T04:15:05.913Z,1013.9
2017-02-18T04:16:15.219Z,1013.94
2017-02-18T04:17:24.985Z,1013.93
2017-02-18T04:18:34.734Z,1013.95
2017-02-18T04:19:44.974Z,1014
2017-02-18T04:20:54.727Z,1013.97
2017-02-18T04:22:04.924Z,1013.97
2017-02-18T04:23:15.570Z,1013.95
2017-02-18T04:24:24.932Z,1013.98
2017-02-18T04:25:34.724Z,1013.94
2017-02-18T04:26:44.469Z,1013.93
2017-02-18T04:27:54.658Z,1013.97
2017-02-18T04:29:04.449Z,1013.95
2017-02-18T04:30:13.762Z,1013.96
2017-02-18T04:31:23.646Z,1013.98
2017-02-18T04:32:33.399Z,1013.94
2017-02-18T04:33:43.144Z,1013.95
2017-02-18T04:34:52.981Z,1013.98
2017-02-18T04:36:02.303Z,1013.98
2017-02-18T04:37:11.689Z,1013.97
2017-02-18T04:38:21.439Z,1013.93
2017-02-18T04:39:31.207Z,1013.9
2017-02-18T04:40:41.035Z,1013.91
2017-02-18T04:41:51.684Z,1013.92
2017-02-18T04:43:02.822Z,1013.99
2017-02-18T04:44:13.071Z,1013.99
2017-02-18T04:45:24.153Z,1013.99
2017-02-18T04:46:33.917Z,1013.98
2017-02-18T04:47:44.994Z,1013.99
2017-02-18T04:48:55.228Z,1014.02
2017-02-18T04:50:04.978Z,1014
2017-02-18T04:51:14.752Z,1014.02
2017-02-18T04:52:24.504Z,1014.09
2017-02-18T04:53:34.697Z,1014.11
2017-02-18T04:54:44.503Z,1014.05
2017-02-18T04:55:54.262Z,1014.08
2017-02-18T04:57:04.888Z,1014.08
2017-02-18T04:58:14.642Z,1014.07
2017-02-18T04:59:23.967Z,1014.06
2017-02-18T05:00:33.771Z,1014.07
2017-02-18T05:01:43.538Z,1014.14
2017-02-18T05:02:53.290Z,1014.08
2017-02-18T05:04:02.602Z,1014.08
2017-02-18T05:05:11.916Z,1014.07
2017-02-18T05:06:23.057Z,1014.13
2017-02-18T05:07:33.259Z,1014.16
2017-02-18T05:08:43.444Z,1014.15
2017-02-18T05:09:53.618Z,1014.11
2017-02-18T05:11:03.372Z,1014.14
2017-02-18T05:12:12.755Z,1014.16
2017-02-18T05:13:22.976Z,1014.09
2017-02-18T05:14:32.304Z,1014.1
2017-02-18T05:15:41.639Z,1014.12
2017-02-18T05:16:51.826Z,1014.14
2017-02-18T05:18:01.630Z,1014.19
2017-02-18T05:19:12.686Z,1014.16
2017-02-18T05:20:22.455Z,1014.16
2017-02-18T05:21:32.661Z,1014.15
2017-02-18T05:22:43.287Z,1014.13
2017-02-18T05:23:53.123Z,1014.13
2017-02-18T05:25:02.440Z,1014.14
2017-02-18T05:26:12.638Z,1014.13
2017-02-18T05:27:21.942Z,1014.12
2017-02-18T05:28:31.258Z,1014.15
2017-02-18T05:29:41.935Z,1014.15
2017-02-18T05:30:51.706Z,1014.14
2017-02-18T05:32:02.357Z,1014.16
2017-02-18T05:33:11.689Z,1014.17
2017-02-18T05:34:21.043Z,1014.18
2017-02-18T05:35:30.399Z,1014.2
2017-02-18T05:36:40.165Z,1014.18
2017-02-18T05:37:49.906Z,1014.19
2017-02-18T05:38:59.229Z,1014.2
2017-02-18T05:40:08.971Z,1014.18
2017-02-18T05:41:20.097Z,1014.18
2017-02-18T05:42:29.850Z,1014.22
2017-02-18T05:43:39.185Z,1014.22
2017-02-18T05:44:48.964Z,1014.21
2017-02-18T05:45:58.281Z,1014.19
2017-02-18T05:47:08.114Z,1014.21
2017-02-18T05:48:17.916Z,1014.15
2017-02-18T05:49:27.658Z,1014.16
2017-02-18T05:50:37.843Z,1014.15
2017-02-18T05:51:47.608Z,1014.18
2017-02-18T05:52:57.867Z,1014.18
2017-02-18T05:54:08.058Z,1014.16
2017-02-18T05:55:18.271Z,1014.21
2017-02-18T05:56:28.016Z,1014.21
2017-02-18T05:57:38.225Z,1014.23
2017-02-18T05:58:48.906Z,1014.28
2017-02-18T05:59:59.110Z,1014.26
2017-02-18T06:01:08.416Z,1014.3
2017-02-18T06:02:18.179Z,1014.32
2017-02-18T06:03:27.494Z,1014.3
2017-02-18T06:04:37.728Z,1014.29
2017-02-18T06:05:47.510Z,1014.3
2017-02-18T06:06:57.259Z,1014.34
2017-02-18T06:08:07.889Z,1014.35
2017-02-18T06:09:17.644Z,1014.34
2017-02-18T06:10:28.331Z,1014.33
2017-02-18T06:11:38.525Z,1014.39
2017-02-18T06:12:48.281Z,1014.38
2017-02-18T06:13:58.019Z,1014.41
2017-02-18T06:15:07.767Z,1014.42
2017-02-18T06:16:18.024Z,1014.48
2017-02-18T06:17:27.797Z,1014.44
2017-02-18T06:18:38.426Z,1014.47
2017-02-18T06:19:48.635Z,1014.48
2017-02-18T06:20:59.263Z,1014.48
2017-02-18T06:22:09.946Z,1014.53
2017-02-18T06:23:19.279Z,1014.54
2017-02-18T06:24:29.022Z,1014.52
2017-02-18T06:25:38.334Z,1014.55
2017-02-18T06:26:48.527Z,1014.58
2017-02-18T06:27:59.204Z,1014.57
2017-02-18T06:29:08.963Z,1014.53
2017-02-18T06:30:18.294Z,1014.58
2017-02-18T06:31:28.055Z,1014.6
2017-02-18T06:32:37.401Z,1014.61
2017-02-18T06:33:47.370Z,1014.62
2017-02-18T06:34:57.555Z,1014.63
2017-02-18T06:36:07.332Z,1014.57
2017-02-18T06:37:17.119Z,1014.6
2017-02-18T06:38:26.868Z,1014.63
2017-02-18T06:39:36.672Z,1014.64
2017-02-18T06:40:46.448Z,1014.63
2017-02-18T06:41:55.779Z,1014.64
2017-02-18T06:43:05.543Z,1014.58
2017-02-18T06:44:14.870Z,1014.65
2017-02-18T06:45:24.682Z,1014.61
2017-02-18T06:46:34.439Z,1014.6
2017-02-18T06:47:44.621Z,1014.58
2017-02-18T06:48:54.381Z,1014.56
2017-02-18T06:50:04.162Z,1014.6
2017-02-18T06:51:14.416Z,1014.58
2017-02-18T06:52:24.174Z,1014.59
2017-02-18T06:53:34.367Z,1014.62
2017-02-18T06:54:44.999Z,1014.6
2017-02-18T06:55:54.806Z,1014.59
2017-02-18T06:57:05.051Z,1014.58
2017-02-18T06:58:14.792Z,1014.56
2017-02-18T06:59:24.548Z,1014.57
2017-02-18T07:00:34.301Z,1014.55
2017-02-18T07:01:44.951Z,1014.58
2017-02-18T07:02:55.178Z,1014.54
2017-02-18T07:04:04.953Z,1014.59
2017-02-18T07:05:15.159Z,1014.56
2017-02-18T07:06:25.396Z,1014.58
2017-02-18T07:07:35.625Z,1014.54
2017-02-18T07:08:46.064Z,1014.55
2017-02-18T07:09:55.832Z,1014.56
2017-02-18T07:11:05.579Z,1014.59
2017-02-18T07:12:15.770Z,1014.6
2017-02-18T07:13:25.998Z,1014.66
2017-02-18T07:14:35.360Z,1014.64
2017-02-18T07:15:45.121Z,1014.64
2017-02-18T07:16:54.884Z,1014.69
2017-02-18T07:18:04.634Z,1014.69
2017-02-18T07:19:14.387Z,1014.69
2017-02-18T07:20:24.193Z,1014.73
2017-02-18T07:21:34.383Z,1014.76
2017-02-18T07:22:45.028Z,1014.75
2017-02-18T07:23:54.790Z,1014.76
2017-02-18T07:25:04.129Z,1014.78
2017-02-18T07:26:14.839Z,1014.76
2017-02-18T07:27:25.064Z,1014.77
2017-02-18T07:28:34.807Z,1014.81
2017-02-18T07:29:44.126Z,1014.77
2017-02-18T07:30:53.895Z,1014.8
2017-02-18T07:32:03.738Z,1014.8
2017-02-18T07:33:13.524Z,1014.79
2017-02-18T07:34:23.727Z,1014.8
2017-02-18T07:35:33.476Z,1014.8
2017-02-18T07:36:43.241Z,1014.77
2017-02-18T07:37:53.476Z,1014.78
2017-02-18T07:39:03.244Z,1014.81
2017-02-18T07:40:13.017Z,1014.83
2017-02-18T07:41:24.079Z,1014.84
2017-02-18T07:42:33.848Z,1014.87
2017-02-18T07:43:43.214Z,1014.82
2017-02-18T07:44:52.522Z,1014.81
2017-02-18T07:46:02.719Z,1014.77
2017-02-18T07:47:12.468Z,1014.83
2017-02-18T07:48:22.653Z,1014.81
2017-02-18T07:49:32.891Z,1014.81
2017-02-18T07:50:42.651Z,1014.8
2017-02-18T07:51:53.282Z,1014.8
2017-02-18T07:53:03.486Z,1014.8
2017-02-18T07:54:12.851Z,1014.82
2017-02-18T07:55:22.284Z,1014.82
2017-02-18T07:56:31.601Z,1014.84
2017-02-18T07:57:41.850Z,1014.85
2017-02-18T07:58:52.089Z,1014.84
2017-02-18T08:00:02.315Z,1014.86
2017-02-18T08:01:12.163Z,1014.86
2017-02-18T08:02:21.944Z,1014.86
2017-02-18T08:03:31.268Z,1014.82
2017-02-18T08:04:41.051Z,1014.85
2017-02-18T08:05:50.364Z,1014.94
2017-02-18T08:06:59.722Z,1014.86
2017-02-18T08:08:09.051Z,1014.87
2017-02-18T08:09:18.378Z,1014.88
2017-02-18T08:10:28.993Z,1014.91
2017-02-18T08:11:38.760Z,1014.96
2017-02-18T08:12:48.562Z,1014.91
2017-02-18T08:13:59.191Z,1014.94
2017-02-18T08:15:08.950Z,1014.96
2017-02-18T08:16:18.749Z,1015
2017-02-18T08:17:28.942Z,1014.97
2017-02-18T08:18:38.776Z,1014.99
2017-02-18T08:19:48.530Z,1014.99
2017-02-18T08:20:57.850Z,1015
2017-02-18T08:22:08.035Z,1015.05
2017-02-18T08:23:18.208Z,1015.05
2017-02-18T08:24:28.029Z,1015.06
2017-02-18T08:25:37.776Z,1015.04
2017-02-18T08:26:47.094Z,1015.06
2017-02-18T08:27:56.410Z,1015.07
2017-02-18T08:29:06.609Z,1015.08
2017-02-18T08:30:16.412Z,1015.06
2017-02-18T08:31:26.617Z,1015.09
2017-02-18T08:32:36.374Z,1015.1
2017-02-18T08:33:47.023Z,1015.06
2017-02-18T08:34:57.652Z,1015.08
2017-02-18T08:36:08.338Z,1015.08
2017-02-18T08:37:17.648Z,1015.08
2017-02-18T08:38:27.387Z,1015.09
2017-02-18T08:39:37.137Z,1015.08
2017-02-18T08:40:46.886Z,1015.1
2017-02-18T08:41:56.700Z,1015.11
2017-02-18T08:43:06.457Z,1015.12
2017-02-18T08:44:16.206Z,1015.09
2017-02-18T08:45:25.526Z,1015.08
2017-02-18T08:46:35.301Z,1015.13
2017-02-18T08:47:45.580Z,1015.12
2017-02-18T08:48:55.358Z,1015.16
2017-02-18T08:50:05.547Z,1015.16
2017-02-18T08:51:15.734Z,1015.2
2017-02-18T08:52:25.478Z,1015.19
2017-02-18T08:53:35.273Z,1015.17
2017-02-18T08:54:45.889Z,1015.2
2017-02-18T08:55:55.241Z,1015.26
2017-02-18T08:57:04.546Z,1015.24
2017-02-18T08:58:13.861Z,1015.22
2017-02-18T08:59:23.256Z,1015.25
2017-02-18T09:00:32.577Z,1015.25
2017-02-18T09:01:42.363Z,1015.2
2017-02-18T09:02:52.108Z,1015.22
2017-02-18T09:04:02.761Z,1015.27
2017-02-18T09:05:13.012Z,1015.28
2017-02-18T09:06:22.327Z,1015.25
2017-02-18T09:07:32.538Z,1015.27
2017-02-18T09:08:41.874Z,1015.23
2017-02-18T09:09:52.080Z,1015.26
2017-02-18T09:11:02.332Z,1015.27
2017-02-18T09:12:11.639Z,1015.27
2017-02-18T09:13:21.413Z,1015.27
2017-02-18T09:14:31.172Z,1015.27
2017-02-18T09:15:41.798Z,1015.28
2017-02-18T09:16:51.174Z,1015.27
2017-02-18T09:18:01.828Z,1015.27
2017-02-18T09:19:11.579Z,1015.24
2017-02-18T09:20:22.218Z,1015.26
2017-02-18T09:21:32.875Z,1015.24
2017-02-18T09:22:42.692Z,1015.29
2017-02-18T09:23:52.466Z,1015.29
2017-02-18T09:25:02.672Z,1015.3
2017-02-18T09:26:12.439Z,1015.33
2017-02-18T09:27:23.069Z,1015.32
2017-02-18T09:28:32.876Z,1015.31
2017-02-18T09:29:42.642Z,1015.34
2017-02-18T09:30:53.293Z,1015.33
2017-02-18T09:32:03.923Z,1015.32
2017-02-18T09:33:13.671Z,1015.37
2017-02-18T09:34:23.200Z,1015.4
2017-02-18T09:35:32.970Z,1015.41
2017-02-18T09:36:42.735Z,1015.42
2017-02-18T09:37:53.807Z,1015.44
2017-02-18T09:39:04.032Z,1015.35
2017-02-18T09:40:13.426Z,1015.4
2017-02-18T09:41:23.631Z,1015.39
2017-02-18T09:42:33.848Z,1015.35
2017-02-18T09:43:44.097Z,1015.39
2017-02-18T09:44:54.293Z,1015.41
2017-02-18T09:46:03.676Z,1015.4
2017-02-18T09:47:13.003Z,1015.42
2017-02-18T09:48:22.338Z,1015.39
2017-02-18T09:49:32.551Z,1015.41
2017-02-18T09:50:42.756Z,1015.4
2017-02-18T09:51:53.114Z,1015.43
2017-02-18T09:53:02.428Z,1015.39
2017-02-18T09:54:12.184Z,1015.39
2017-02-18T09:55:21.518Z,1015.39
2017-02-18T09:56:30.857Z,1015.43
2017-02-18T09:57:40.648Z,1015.44
2017-02-18T09:58:51.279Z,1015.47
2017-02-18T10:00:00.615Z,1015.46
2017-02-18T10:01:10.825Z,1015.47
2017-02-18T10:02:20.142Z,1015.47
2017-02-18T10:03:29.935Z,1015.46
2017-02-18T10:04:40.125Z,1015.44
2017-02-18T10:05:49.864Z,1015.46
2017-02-18T10:07:00.097Z,1015.42
2017-02-18T10:08:10.290Z,1015.44
2017-02-18T10:09:19.659Z,1015.43
2017-02-18T10:10:29.856Z,1015.39
2017-02-18T10:11:40.063Z,1015.42
2017-02-18T10:12:49.376Z,1015.41
2017-02-18T10:13:58.684Z,1015.4
2017-02-18T10:15:08.491Z,1015.39
2017-02-18T10:16:17.814Z,1015.43
2017-02-18T10:17:27.577Z,1015.44
2017-02-18T10:18:36.909Z,1015.44
2017-02-18T10:19:46.234Z,1015.46
2017-02-18T10:20:55.619Z,1015.47
2017-02-18T10:22:05.364Z,1015.44
2017-02-18T10:23:14.689Z,1015.5
2017-02-18T10:24:25.318Z,1015.47
2017-02-18T10:25:35.959Z,1015.47
2017-02-18T10:26:45.321Z,1015.46
2017-02-18T10:27:55.066Z,1015.48
2017-02-18T10:29:05.257Z,1015.43
2017-02-18T10:30:15.066Z,1015.42
2017-02-18T10:31:25.671Z,1015.43
2017-02-18T10:32:35.036Z,1015.41
2017-02-18T10:33:44.789Z,1015.43
2017-02-18T10:34:54.541Z,1015.42
2017-02-18T10:36:04.343Z,1015.43
2017-02-18T10:37:14.093Z,1015.42
2017-02-18T10:38:23.496Z,1015.45
2017-02-18T10:39:33.699Z,1015.43
2017-02-18T10:40:43.451Z,1015.42
2017-02-18T10:41:53.640Z,1015.38
2017-02-18T10:43:03.413Z,1015.42
2017-02-18T10:44:13.639Z,1015.39
2017-02-18T10:45:23.389Z,1015.42
2017-02-18T10:46:33.585Z,1015.42
2017-02-18T10:47:43.782Z,1015.44
2017-02-18T10:48:54.413Z,1015.44
2017-02-18T10:50:04.245Z,1015.4
2017-02-18T10:51:14.431Z,1015.43
2017-02-18T10:52:23.752Z,1015.47
2017-02-18T10:53:33.080Z,1015.49
2017-02-18T10:54:43.713Z,1015.51
2017-02-18T10:55:54.830Z,1015.47
2017-02-18T10:57:04.143Z,1015.46
2017-02-18T10:58:14.804Z,1015.47
2017-02-18T10:59:24.565Z,1015.46
2017-02-18T11:00:34.768Z,1015.49
2017-02-18T11:01:44.140Z,1015.51
2017-02-18T11:02:53.908Z,1015.46
2017-02-18T11:04:04.088Z,1015.45
2017-02-18T11:05:13.889Z,1015.49
2017-02-18T11:06:23.217Z,1015.43
2017-02-18T11:07:33.185Z,1015.47
2017-02-18T11:08:42.947Z,1015.43
2017-02-18T11:09:52.712Z,1015.42
2017-02-18T11:11:03.334Z,1015.42
2017-02-18T11:12:13.090Z,1015.44
2017-02-18T11:13:23.017Z,1015.45
2017-02-18T11:14:32.352Z,1015.41
2017-02-18T11:15:41.686Z,1015.35
2017-02-18T11:16:51.442Z,1015.41
2017-02-18T11:18:01.188Z,1015.35
2017-02-18T11:19:11.001Z,1015.35
2017-02-18T11:20:20.759Z,1015.37
2017-02-18T11:21:30.953Z,1015.34
2017-02-18T11:22:40.694Z,1015.35
2017-02-18T11:23:50.884Z,1015.31
2017-02-18T11:25:00.255Z,1015.36
2017-02-18T11:26:09.992Z,1015.33
2017-02-18T11:27:19.745Z,1015.36
2017-02-18T11:28:29.955Z,1015.34
2017-02-18T11:29:39.728Z,1015.34
2017-02-18T11:30:49.572Z,1015.31
2017-02-18T11:32:00.278Z,1015.34
2017-02-18T11:33:09.594Z,1015.36
2017-02-18T11:34:18.904Z,1015.34
2017-02-18T11:35:28.681Z,1015.36
2017-02-18T11:36:38.938Z,1015.35
2017-02-18T11:37:48.699Z,1015.34
2017-02-18T11:38:58.916Z,1015.34
2017-02-18T11:40:08.669Z,1015.33
2017-02-18T11:41:19.311Z,1015.34
2017-02-18T11:42:29.554Z,1015.33
2017-02-18T11:43:39.745Z,1015.32
2017-02-18T11:44:49.510Z,1015.31
2017-02-18T11:45:59.697Z,1015.31
2017-02-18T11:47:09.013Z,1015.27
2017-02-18T11:48:19.454Z,1015.27
2017-02-18T11:49:29.673Z,1015.24
2017-02-18T11:50:39.457Z,1015.23
2017-02-18T11:51:50.091Z,1015.24
2017-02-18T11:52:59.443Z,1015.21
2017-02-18T11:54:09.701Z,1015.22
2017-02-18T11:55:19.016Z,1015.21
2017-02-18T11:56:29.230Z,1015.22
2017-02-18T11:57:39.435Z,1015.17
2017-02-18T11:58:51.684Z,1015.16
2017-02-18T12:00:01.930Z,1015.15
2017-02-18T12:01:12.139Z,1015.17
2017-02-18T12:02:21.443Z,1015.13
2017-02-18T12:03:31.639Z,1015.14
2017-02-18T12:04:40.962Z,1015.08
2017-02-18T12:05:51.244Z,1015.08
2017-02-18T12:07:01.427Z,1015.08
2017-02-18T12:08:10.746Z,1015.08
2017-02-18T12:09:20.963Z,1015.09
2017-02-18T12:10:30.717Z,1015.04
2017-02-18T12:11:40.137Z,1015.09
2017-02-18T12:12:50.374Z,1015.02
2017-02-18T12:14:00.572Z,1015.02
2017-02-18T12:15:10.329Z,1014.98
2017-02-18T12:16:20.078Z,1014.99
2017-02-18T12:17:29.467Z,1014.97
2017-02-18T12:18:39.221Z,1014.94
2017-02-18T12:19:48.549Z,1014.94
2017-02-18T12:20:58.313Z,1014.91
2017-02-18T12:22:07.640Z,1014.95
2017-02-18T12:23:17.470Z,1014.95
2017-02-18T12:24:27.221Z,1014.9
2017-02-18T12:25:36.968Z,1014.9
2017-02-18T12:26:46.727Z,1014.92
2017-02-18T12:27:56.502Z,1014.88
2017-02-18T12:29:06.755Z,1014.88
2017-02-18T12:30:16.948Z,1014.87
2017-02-18T12:31:27.161Z,1014.88
2017-02-18T12:32:36.481Z,1014.88
2017-02-18T12:33:46.664Z,1014.85
2017-02-18T12:34:57.537Z,1014.86
2017-02-18T12:36:07.282Z,1014.85
2017-02-18T12:37:17.901Z,1014.85
2017-02-18T12:38:27.665Z,1014.81
2017-02-18T12:39:37.430Z,1014.83
2017-02-18T12:40:47.671Z,1014.81
2017-02-18T12:41:56.996Z,1014.84
2017-02-18T12:43:07.203Z,1014.78
2017-02-18T12:44:16.954Z,1014.8
2017-02-18T12:45:26.703Z,1014.75
2017-02-18T12:46:36.087Z,1014.8
2017-02-18T12:47:45.392Z,1014.77
2017-02-18T12:48:56.035Z,1014.73
2017-02-18T12:50:06.232Z,1014.73
2017-02-18T12:51:16.034Z,1014.76
2017-02-18T12:52:25.404Z,1014.77
2017-02-18T12:53:35.605Z,1014.78
2017-02-18T12:54:45.375Z,1014.75
2017-02-18T12:55:55.133Z,1014.74
2017-02-18T12:57:04.488Z,1014.72
2017-02-18T12:58:14.737Z,1014.71
2017-02-18T12:59:24.530Z,1014.7
2017-02-18T13:00:34.303Z,1014.7
2017-02-18T13:01:44.061Z,1014.7
2017-02-18T13:02:53.826Z,1014.72
2017-02-18T13:04:03.645Z,1014.69
2017-02-18T13:05:13.412Z,1014.71
2017-02-18T13:06:24.042Z,1014.71
2017-02-18T13:07:33.804Z,1014.69
2017-02-18T13:08:43.537Z,1014.68
2017-02-18T13:09:53.350Z,1014.65
2017-02-18T13:11:03.556Z,1014.66
2017-02-18T13:12:13.791Z,1014.65
2017-02-18T13:13:23.997Z,1014.65
2017-02-18T13:14:33.322Z,1014.6
2017-02-18T13:15:43.718Z,1014.62
2017-02-18T13:16:53.901Z,1014.59
2017-02-18T13:18:03.234Z,1014.61
2017-02-18T13:19:12.563Z,1014.54
2017-02-18T13:20:23.201Z,1014.53
2017-02-18T13:21:33.005Z,1014.51
2017-02-18T13:22:43.203Z,1014.53
2017-02-18T13:23:52.519Z,1014.47
2017-02-18T13:25:02.708Z,1014.46
2017-02-18T13:26:12.906Z,1014.4
2017-02-18T13:27:23.168Z,1014.45
2017-02-18T13:28:32.544Z,1014.39
2017-02-18T13:29:42.737Z,1014.41
2017-02-18T13:30:52.520Z,1014.35
2017-02-18T13:32:02.285Z,1014.41
2017-02-18T13:33:13.453Z,1014.38
2017-02-18T13:34:23.636Z,1014.33
2017-02-18T13:35:32.955Z,1014.39
2017-02-18T13:36:43.152Z,1014.39
2017-02-18T13:37:52.935Z,1014.41
2017-02-18T13:39:03.168Z,1014.39
2017-02-18T13:40:12.473Z,1014.38
2017-02-18T13:41:21.777Z,1014.4
2017-02-18T13:42:31.091Z,1014.39
2017-02-18T13:43:42.152Z,1014.35
2017-02-18T13:44:52.410Z,1014.38
2017-02-18T13:46:02.162Z,1014.32
2017-02-18T13:47:12.781Z,1014.34
2017-02-18T13:48:22.973Z,1014.3
2017-02-18T13:49:32.287Z,1014.31
2017-02-18T13:50:41.661Z,1014.31
2017-02-18T13:51:51.857Z,1014.33
2017-02-18T13:53:01.613Z,1014.27
2017-02-18T13:54:10.938Z,1014.26
2017-02-18T13:55:21.585Z,1014.25
2017-02-18T13:56:31.388Z,1014.28
2017-02-18T13:57:41.586Z,1014.24
2017-02-18T13:58:51.783Z,1014.23
2017-02-18T14:00:01.992Z,1014.24
2017-02-18T14:01:12.185Z,1014.19
2017-02-18T14:02:21.550Z,1014.21
2017-02-18T14:03:31.317Z,1014.23
2017-02-18T14:04:40.632Z,1014.22
2017-02-18T14:05:49.943Z,1014.25
2017-02-18T14:06:59.711Z,1014.27
2017-02-18T14:08:10.847Z,1014.25